createdAt,value
2023-02-23T00:00:29.907Z,1.52
2023-02-23T00:05:55.279Z,1.46
2023-02-23T00:11:27.510Z,1.40
2023-02-23T00:17:32.300Z,1.34
2023-02-23T00:23:59.583Z,1.27
2023-02-23T00:30:24.432Z,1.22
2023-02-23T00:36:53.772Z,1.18
2023-02-23T00:43:20.723Z,1.16
2023-02-23T00:49:46.361Z,1.16
2023-02-23T00:56:13.551Z,1.10
2023-02-23T01:02:40.258Z,1.05
2023-02-23T01:09:05.888Z,1.00
2023-02-23T01:15:32.134Z,0.96
2023-02-23T01:21:57.998Z,0.93
2023-02-23T01:28:23.216Z,0.93
2023-02-23T01:34:48.076Z,0.86
2023-02-23T01:41:14.685Z,0.81
2023-02-23T01:47:39.998Z,0.76
2023-02-23T01:54:05.417Z,0.71
2023-02-23T02:06:18.436Z,0.62
2023-02-23T02:11:31.065Z,0.59
2023-02-23T02:17:09.053Z,0.58
2023-02-23T02:22:23.446Z,0.56
2023-02-23T02:27:54.805Z,0.52
2023-02-23T02:33:38.958Z,0.51
2023-02-23T02:39:35.288Z,0.51
2023-02-23T02:44:45.618Z,0.48
2023-02-23T02:50:02.688Z,0.47
2023-02-23T02:55:15.381Z,0.46
2023-02-23T03:00:40.086Z,0.44
2023-02-23T03:06:08.584Z,0.40
2023-02-23T03:11:33.525Z,0.37
2023-02-23T03:17:20.695Z,0.33
2023-02-23T03:22:47.664Z,0.30
2023-02-23T03:28:34.420Z,0.28
2023-02-23T03:34:04.378Z,0.26
2023-02-23T03:39:47.017Z,0.27
2023-02-23T03:45:11.777Z,0.28
2023-02-23T03:50:43.632Z,0.31
2023-02-23T03:56:11.777Z,0.33
2023-02-23T04:01:35.521Z,0.37
2023-02-23T04:07:02.333Z,0.42
2023-02-23T04:12:30.859Z,0.47
2023-02-23T04:17:35.207Z,0.50
2023-02-23T04:22:39.344Z,0.54
2023-02-23T04:27:43.250Z,0.58
2023-02-23T04:32:47.063Z,0.61
2023-02-23T04:37:52.980Z,0.64
2023-02-23T04:42:58.933Z,0.65
2023-02-23T04:48:02.594Z,0.66
2023-02-23T04:53:06.317Z,0.67
2023-02-23T04:58:14.117Z,0.68
2023-02-23T05:03:17.940Z,0.69
2023-02-23T05:08:26.751Z,0.68
2023-02-23T05:13:30.769Z,0.66
2023-02-23T05:18:35.318Z,0.67
2023-02-23T05:23:40.528Z,0.64
2023-02-23T05:28:47.251Z,0.65
2023-02-23T05:33:51.327Z,0.66
2023-02-23T05:38:55.989Z,0.66
2023-02-23T05:44:00.068Z,0.66
2023-02-23T05:49:04.598Z,0.66
2023-02-23T05:54:10.566Z,0.65
2023-02-23T05:59:14.546Z,0.66
2023-02-23T06:04:18.541Z,0.67
2023-02-23T06:09:22.408Z,0.71
2023-02-23T06:14:26.108Z,0.76
2023-02-23T06:19:29.979Z,0.80
2023-02-23T06:24:34.651Z,0.85
2023-02-23T06:29:38.783Z,0.93
2023-02-23T06:34:45.185Z,1.01
2023-02-23T06:39:49.840Z,1.11
2023-02-23T06:44:54.594Z,1.21
2023-02-23T06:50:00.451Z,1.32
2023-02-23T06:55:06.350Z,1.43
2023-02-23T07:00:15.371Z,1.54
2023-02-23T07:05:19.189Z,1.66
2023-02-23T07:10:23.065Z,1.79
2023-02-23T07:15:29.147Z,1.90
2023-02-23T07:20:34.523Z,2.01
2023-02-23T07:25:39.927Z,2.12
2023-02-23T07:30:44.205Z,2.24
2023-02-23T07:35:51.391Z,2.36
2023-02-23T07:40:55.221Z,2.47
2023-02-23T07:46:05.344Z,2.61
2023-02-23T07:51:16.482Z,2.76
2023-02-23T07:56:20.753Z,2.94
2023-02-23T08:01:26.562Z,3.08
2023-02-23T08:06:31.909Z,3.25
2023-02-23T08:11:41.556Z,3.42
2023-02-23T08:16:45.912Z,3.60
2023-02-23T08:21:51.476Z,3.76
2023-02-23T08:26:57.421Z,3.90
2023-02-23T08:32:06.070Z,4.02
2023-02-23T08:37:11.768Z,4.20
2023-02-23T08:42:15.759Z,4.43
2023-02-23T08:47:26.827Z,4.66
2023-02-23T08:52:30.518Z,4.81
2023-02-23T08:57:36.082Z,4.97
2023-02-23T09:02:41.596Z,5.13
2023-02-23T09:07:46.138Z,5.23
2023-02-23T09:12:50.196Z,5.39
2023-02-23T09:17:54.940Z,5.61
2023-02-23T09:23:01.566Z,5.82
2023-02-23T09:28:14.922Z,5.94
2023-02-23T09:33:18.924Z,5.99
2023-02-23T09:38:22.865Z,6.12
2023-02-23T09:43:45.604Z,6.40
2023-02-23T09:48:51.883Z,6.72
2023-02-23T09:53:59.069Z,6.93
2023-02-23T09:59:05.575Z,7.10
2023-02-23T10:04:27.594Z,7.26
2023-02-23T10:09:57.755Z,7.43
2023-02-23T10:15:21.892Z,7.55
2023-02-23T10:20:30.362Z,7.65
2023-02-23T10:25:38.010Z,7.76
2023-02-23T10:30:42.232Z,7.81
2023-02-23T10:35:47.791Z,8.02
2023-02-23T10:40:55.209Z,8.24
2023-02-23T10:45:59.149Z,8.38
2023-02-23T10:51:06.271Z,8.56
2023-02-23T10:56:15.399Z,8.71
2023-02-23T11:01:49.126Z,8.84
2023-02-23T11:07:16.772Z,8.96
2023-02-23T11:12:44.486Z,9.01
2023-02-23T11:17:56.148Z,9.13
2023-02-23T11:23:09.582Z,9.19
2023-02-23T11:28:24.421Z,9.19
2023-02-23T11:33:36.200Z,9.25
2023-02-23T11:38:39.998Z,9.31
2023-02-23T11:44:00.136Z,9.35
2023-02-23T11:49:09.837Z,9.30
2023-02-23T11:54:30.538Z,9.30
2023-02-23T11:59:41.990Z,9.36
2023-02-23T12:04:51.421Z,9.49
2023-02-23T12:10:07.727Z,9.63
2023-02-23T12:15:25.952Z,9.70
2023-02-23T12:20:38.731Z,9.86
2023-02-23T12:25:54.011Z,10.03
2023-02-23T12:31:25.661Z,10.21
2023-02-23T12:36:35.630Z,10.41
2023-02-23T12:41:47.087Z,10.53
2023-02-23T12:46:53.052Z,10.68
2023-02-23T12:52:09.221Z,10.87
2023-02-23T12:57:29.393Z,11.03
2023-02-23T13:02:34.589Z,11.14
2023-02-23T13:07:45.161Z,11.23
2023-02-23T13:13:08.358Z,11.35
2023-02-23T13:18:24.229Z,11.45
2023-02-23T13:23:36.773Z,11.53
2023-02-23T13:29:01.038Z,11.60
2023-02-23T13:34:12.813Z,11.63
2023-02-23T13:39:29.609Z,11.75
2023-02-23T13:45:02.711Z,11.75
2023-02-23T13:50:15.589Z,11.85
2023-02-23T13:55:47.114Z,11.96
2023-02-23T14:01:21.554Z,12.07
2023-02-23T14:06:28.392Z,12.16
2023-02-23T14:11:45.982Z,12.23
2023-02-23T14:17:41.916Z,12.27
2023-02-23T14:23:21.909Z,12.35
2023-02-23T14:28:31.545Z,12.33
2023-02-23T14:33:51.203Z,12.27
2023-02-23T14:38:57.770Z,12.15
2023-02-23T14:44:30.000Z,12.05
2023-02-23T14:49:39.275Z,11.96
2023-02-23T14:54:42.914Z,11.82
2023-02-23T14:59:52.504Z,11.67
2023-02-23T15:04:56.432Z,11.53
2023-02-23T15:10:01.190Z,11.41
2023-02-23T15:15:12.756Z,11.29
2023-02-23T15:20:18.581Z,11.16
2023-02-23T15:25:26.626Z,11.04
2023-02-23T15:30:32.380Z,10.93
2023-02-23T15:35:44.827Z,10.79
2023-02-23T15:40:50.959Z,10.66
2023-02-23T15:45:55.282Z,10.52
2023-02-23T15:50:59.541Z,10.38
2023-02-23T15:56:15.780Z,10.24
2023-02-23T16:01:29.110Z,10.08
2023-02-23T16:06:54.717Z,9.91
2023-02-23T16:12:03.319Z,9.73
2023-02-23T16:17:12.337Z,9.55
2023-02-23T16:22:25.511Z,9.38
2023-02-23T16:27:30.227Z,9.23
2023-02-23T16:32:45.873Z,9.08
2023-02-23T16:37:57.824Z,8.96
2023-02-23T16:43:04.347Z,8.86
2023-02-23T16:48:16.609Z,8.76
2023-02-23T16:53:23.413Z,8.65
2023-02-23T16:58:30.540Z,8.54
2023-02-23T17:03:47.317Z,8.42
2023-02-23T17:08:58.778Z,8.28
2023-02-23T17:14:03.817Z,8.15
2023-02-23T17:19:11.677Z,8.01
2023-02-23T17:24:16.439Z,7.88
2023-02-23T17:29:34.339Z,7.76
2023-02-23T17:34:39.818Z,7.65
2023-02-23T17:39:45.563Z,7.56
2023-02-23T17:44:58.086Z,7.46
2023-02-23T17:50:03.561Z,7.34
2023-02-23T17:55:12.115Z,7.23
2023-02-23T18:00:20.296Z,7.14
2023-02-23T18:05:26.554Z,7.08
2023-02-23T18:10:38.458Z,7.04
2023-02-23T18:15:48.948Z,6.97
2023-02-23T18:21:01.602Z,6.91
2023-02-23T18:26:12.550Z,6.85
2023-02-23T18:31:25.930Z,6.81
2023-02-23T18:43:32.528Z,6.78
2023-02-23T18:48:41.843Z,6.80
2023-02-23T18:53:49.428Z,6.83
2023-02-23T18:59:06.066Z,6.80
2023-02-23T19:04:19.166Z,6.74
2023-02-23T19:09:35.400Z,6.66
2023-02-23T19:14:49.576Z,6.57
2023-02-23T19:20:03.853Z,6.48
2023-02-23T19:25:18.373Z,6.44
2023-02-23T19:30:25.979Z,6.45
2023-02-23T19:35:34.225Z,6.49
2023-02-23T19:40:43.640Z,6.53
2023-02-23T19:45:53.332Z,6.56
2023-02-23T19:50:59.584Z,6.55
2023-02-23T19:56:09.918Z,6.52
2023-02-23T20:01:20.670Z,6.46
2023-02-23T20:06:33.188Z,6.40
2023-02-23T20:11:41.625Z,6.33
2023-02-23T20:16:49.374Z,6.29
2023-02-23T20:22:02.664Z,6.27
2023-02-23T20:27:08.266Z,6.28
2023-02-23T20:32:14.598Z,6.34
2023-02-23T20:37:26.044Z,6.43
2023-02-23T20:42:32.849Z,6.53
2023-02-23T20:47:45.012Z,6.63
2023-02-23T20:52:57.495Z,6.74
2023-02-23T20:58:08.212Z,6.82
2023-02-23T21:03:17.270Z,6.89
2023-02-23T21:08:32.208Z,6.96
2023-02-23T21:13:48.823Z,7.05
2023-02-23T21:19:05.057Z,7.12
2023-02-23T21:24:13.785Z,7.21
2023-02-23T21:29:19.239Z,7.30
2023-02-23T21:34:24.757Z,7.41
2023-02-23T21:39:34.865Z,7.49
2023-02-23T21:44:45.956Z,7.57
2023-02-23T21:49:55.985Z,7.63
2023-02-23T21:55:05.709Z,7.69
2023-02-23T22:00:17.241Z,7.74
2023-02-23T22:05:22.506Z,7.78
2023-02-23T22:10:28.565Z,7.81
2023-02-23T22:15:33.977Z,7.79
2023-02-23T22:20:38.430Z,7.72
2023-02-23T22:25:47.360Z,7.70
2023-02-23T22:30:51.496Z,7.69
2023-02-23T22:36:02.684Z,7.66
2023-02-23T22:41:20.377Z,7.62
2023-02-23T22:46:25.411Z,7.61
2023-02-23T22:51:29.612Z,7.63
2023-02-23T22:56:40.691Z,7.68
2023-02-23T23:01:44.859Z,7.74
2023-02-23T23:06:55.172Z,7.78
2023-02-23T23:12:00.307Z,7.83
2023-02-23T23:17:04.732Z,7.90
2023-02-23T23:22:14.881Z,7.93
2023-02-23T23:27:20.590Z,7.97
2023-02-23T23:32:28.009Z,8.03
2023-02-23T23:37:33.381Z,8.09
2023-02-23T23:42:37.411Z,8.18
2023-02-23T23:47:41.361Z,8.25
2023-02-23T23:52:45.715Z,8.29
2023-02-23T23:57:54.341Z,8.32
